createdAt,value
2023-04-20T00:01:57.701Z,32.45
2023-04-20T00:06:59.822Z,29.17
2023-04-20T00:12:03.148Z,36.08
2023-04-20T00:17:05.531Z,28.58
2023-04-20T00:22:07.508Z,32.83
2023-04-20T00:27:11.769Z,29.42
2023-04-20T00:32:13.702Z,19.35
2023-04-20T00:37:15.701Z,19.55
2023-04-20T00:42:18.978Z,20.65
2023-04-20T00:47:20.929Z,19.83
2023-04-20T00:52:23.025Z,20.17
2023-04-20T00:57:27.917Z,13.40
2023-04-20T01:02:29.967Z,41.67
2023-04-20T01:07:32.571Z,40.75
2023-04-20T01:12:36.155Z,45.00
2023-04-20T01:22:45.607Z,37.17
2023-04-20T01:27:48.132Z,42.55
2023-04-20T01:32:50.353Z,38.13
2023-04-20T01:37:53.665Z,33.42
2023-04-20T01:42:55.863Z,28.00
2023-04-20T01:47:57.848Z,28.75
2023-04-20T01:53:01.385Z,29.92
2023-04-20T01:58:04.010Z,30.02
2023-04-20T02:03:06.516Z,36.97
2023-04-20T02:08:09.947Z,27.95
2023-04-20T02:13:11.996Z,34.00
2023-04-20T02:18:16.266Z,30.58
2023-04-20T02:23:19.554Z,38.00
2023-04-20T02:28:21.530Z,38.25
2023-04-20T02:33:23.485Z,41.75
2023-04-20T02:38:27.164Z,60.30
2023-04-20T02:43:29.077Z,45.00
2023-04-20T02:48:31.072Z,49.38
2023-04-20T02:53:34.665Z,55.47
2023-04-20T02:58:36.611Z,53.60
2023-04-20T03:03:38.667Z,61.50
2023-04-20T03:08:42.122Z,59.40
2023-04-20T03:13:44.097Z,54.33
2023-04-20T03:18:46.181Z,55.92
2023-04-20T03:23:49.462Z,50.25
2023-04-20T03:28:51.481Z,93.60
2023-04-20T03:33:53.688Z,61.28
2023-04-20T03:38:56.957Z,79.00
2023-04-20T03:43:58.880Z,86.97
2023-04-20T03:49:00.878Z,80.03
2023-04-20T03:54:05.935Z,65.40
2023-04-20T03:59:07.904Z,73.22
2023-04-20T04:04:10.026Z,55.70
2023-04-20T04:09:13.553Z,58.33
2023-04-20T04:14:15.524Z,41.75
2023-04-20T04:19:17.792Z,47.35
2023-04-20T04:24:21.636Z,61.17
2023-04-20T04:29:25.688Z,60.33
2023-04-20T04:34:29.768Z,58.05
2023-04-20T04:39:33.056Z,54.33
2023-04-20T04:44:35.008Z,51.60
2023-04-20T04:49:37.081Z,41.97
2023-04-20T04:54:40.956Z,31.98
2023-04-20T04:59:42.982Z,27.02
2023-04-20T05:04:46.721Z,26.30
2023-04-20T05:09:50.405Z,26.55
2023-04-20T05:14:52.720Z,45.97
2023-04-20T05:19:54.736Z,39.55
2023-04-20T05:24:58.037Z,48.00
2023-04-20T05:35:19.202Z,53.28
2023-04-20T05:40:22.622Z,38.72
2023-04-20T05:45:24.664Z,41.55
2023-04-20T05:50:27.385Z,45.90
2023-04-20T05:55:30.844Z,35.97
2023-04-20T06:00:32.862Z,41.13
2023-04-20T06:05:35.113Z,42.15
2023-04-20T06:10:38.708Z,42.42
2023-04-20T06:15:40.743Z,27.88
2023-04-20T06:20:43.317Z,30.35
2023-04-20T06:25:46.805Z,26.55
2023-04-20T06:30:48.750Z,35.63
2023-04-20T06:35:51.589Z,35.97
2023-04-20T06:40:57.400Z,28.15
2023-04-20T06:45:59.398Z,31.40
2023-04-20T06:51:01.832Z,38.80
2023-04-20T06:56:05.970Z,33.65
2023-04-20T07:01:07.954Z,27.25
2023-04-20T07:06:11.336Z,24.95
2023-04-20T07:11:14.867Z,19.55
2023-04-20T07:16:17.008Z,22.52
2023-04-20T07:21:19.051Z,20.67
2023-04-20T07:26:23.364Z,19.42
2023-04-20T07:31:25.427Z,26.15
2023-04-20T07:36:27.912Z,20.92
2023-04-20T07:41:31.219Z,18.63
2023-04-20T07:46:33.167Z,24.80
2023-04-20T07:51:35.277Z,37.47
2023-04-20T07:56:38.595Z,30.23
2023-04-20T08:01:40.699Z,31.35
2023-04-20T08:06:42.695Z,24.58
2023-04-20T08:11:46.260Z,23.50
2023-04-20T08:16:48.253Z,33.17
2023-04-20T08:21:51.352Z,36.53
2023-04-20T08:26:54.638Z,24.98
2023-04-20T08:31:56.702Z,28.42
2023-04-20T08:36:58.753Z,24.45
2023-04-20T08:42:02.267Z,25.63
2023-04-20T08:47:04.502Z,21.52
2023-04-20T08:52:10.695Z,25.45
2023-04-20T08:57:14.058Z,26.17
2023-04-20T09:02:16.226Z,13.15
2023-04-20T09:07:19.824Z,17.95
2023-04-20T09:12:24.680Z,15.38
2023-04-20T09:17:34.140Z,12.25
2023-04-20T09:22:37.448Z,16.30
2023-04-20T09:27:40.800Z,11.25
2023-04-20T09:32:42.979Z,14.25
2023-04-20T09:37:48.848Z,13.23
2023-04-20T09:42:53.944Z,17.02
2023-04-20T09:47:57.236Z,13.75
2023-04-20T09:53:00.378Z,9.35
2023-04-20T09:58:04.860Z,13.38
2023-04-20T10:03:09.101Z,14.98
2023-04-20T10:08:11.475Z,11.18
2023-04-20T10:13:15.351Z,12.38
2023-04-20T10:18:23.447Z,11.98
2023-04-20T10:23:25.784Z,11.60
2023-04-20T10:28:40.076Z,10.57
2023-04-20T10:33:53.090Z,14.55
2023-04-20T10:38:55.817Z,8.73
2023-04-20T10:49:10.695Z,17.95
2023-04-20T10:54:12.678Z,13.43
2023-04-20T10:59:17.337Z,10.70
2023-04-20T11:04:29.609Z,11.93
2023-04-20T11:09:33.443Z,6.70
2023-04-20T11:14:40.097Z,8.48
2023-04-20T11:19:42.065Z,9.13
2023-04-20T11:24:44.221Z,7.95
2023-04-20T11:29:56.178Z,9.98
2023-04-20T11:35:05.968Z,12.35
2023-04-20T11:40:10.303Z,8.50
2023-04-20T11:45:13.587Z,11.35
2023-04-20T11:50:15.697Z,6.40
2023-04-20T11:55:17.935Z,11.93
2023-04-20T12:00:22.103Z,12.52
2023-04-20T12:05:24.127Z,8.93
2023-04-20T12:10:26.149Z,9.52
2023-04-20T12:15:29.446Z,10.80
2023-04-20T12:20:31.434Z,9.85
2023-04-20T12:25:33.559Z,12.77
2023-04-20T12:30:36.858Z,11.20
2023-04-20T12:35:38.836Z,14.15
2023-04-20T12:40:40.843Z,11.45
2023-04-20T12:45:44.221Z,10.80
2023-04-20T12:50:46.210Z,8.07
2023-04-20T12:55:49.551Z,22.70
2023-04-20T13:00:56.479Z,7.57
2023-04-20T13:05:58.975Z,13.20
2023-04-20T13:11:00.939Z,12.77
2023-04-20T13:16:04.717Z,9.13
2023-04-20T13:21:07.037Z,8.98
2023-04-20T13:26:09.192Z,7.40
2023-04-20T13:31:12.480Z,10.35
2023-04-20T13:36:14.526Z,11.65
2023-04-20T13:41:16.499Z,6.63
2023-04-20T13:46:20.853Z,7.78
2023-04-20T13:51:22.956Z,5.88
2023-04-20T13:56:25.007Z,7.30
2023-04-20T14:01:28.344Z,9.02
2023-04-20T14:06:31.160Z,8.90
2023-04-20T14:11:33.271Z,5.72
2023-04-20T14:16:44.130Z,6.45
2023-04-20T14:21:47.284Z,7.45
2023-04-20T14:26:50.825Z,11.45
2023-04-20T14:31:54.206Z,11.25
2023-04-20T14:36:56.607Z,7.30
2023-04-20T14:41:58.562Z,7.40
2023-04-20T14:47:02.952Z,13.38
2023-04-20T14:52:05.154Z,6.30
2023-04-20T14:57:07.277Z,7.50
2023-04-20T15:02:10.799Z,11.13
2023-04-20T15:07:12.930Z,14.50
2023-04-20T15:12:14.915Z,7.68
2023-04-20T15:17:18.871Z,8.55
2023-04-20T15:22:20.836Z,10.05
2023-04-20T15:27:22.798Z,9.05
2023-04-20T15:32:26.386Z,5.13
2023-04-20T15:37:28.681Z,5.53
2023-04-20T15:42:30.688Z,4.72
2023-04-20T15:47:34.090Z,8.68
2023-04-20T15:52:36.200Z,6.13
2023-04-20T15:57:38.158Z,7.65
2023-04-20T16:02:41.591Z,6.30
2023-04-20T16:07:43.723Z,9.75
2023-04-20T16:12:46.087Z,6.00
2023-04-20T16:17:49.413Z,7.57
2023-04-20T16:22:51.562Z,4.38
2023-04-20T16:27:53.658Z,5.03
2023-04-20T16:32:59.610Z,2.88
2023-04-20T16:38:01.803Z,3.97
2023-04-20T16:43:03.896Z,8.93
2023-04-20T16:48:08.223Z,5.65
2023-04-20T16:53:10.398Z,17.13
2023-04-20T16:58:12.677Z,8.48
2023-04-20T17:03:16.174Z,13.88
2023-04-20T17:08:18.916Z,12.43
2023-04-20T17:23:26.441Z,3.90
2023-04-20T17:28:28.597Z,8.57
2023-04-20T17:33:32.113Z,6.82
2023-04-20T17:38:36.580Z,6.57
2023-04-20T17:43:40.382Z,12.07
2023-04-20T17:48:43.694Z,8.00
2023-04-20T17:53:45.754Z,7.50
2023-04-20T17:58:48.973Z,8.18
2023-04-20T18:03:52.576Z,6.80
2023-04-20T18:08:56.258Z,9.63
2023-04-20T18:13:58.301Z,8.63
2023-04-20T18:19:01.618Z,9.77
2023-04-20T18:24:04.616Z,5.60
2023-04-20T18:34:11.566Z,10.80
2023-04-20T18:39:14.719Z,11.10
2023-04-20T18:44:17.043Z,15.18
2023-04-20T18:49:20.488Z,9.77
2023-04-20T18:54:22.478Z,7.28
2023-04-20T18:59:25.062Z,10.85
2023-04-20T19:04:29.252Z,14.20
2023-04-20T19:09:31.280Z,8.35
2023-04-20T19:14:33.264Z,6.72
2023-04-20T19:19:36.670Z,6.70
2023-04-20T19:24:38.652Z,8.60
2023-04-20T19:29:40.796Z,7.95
2023-04-20T19:34:44.247Z,6.93
2023-04-20T19:39:46.226Z,7.50
2023-04-20T19:44:48.259Z,5.95
2023-04-20T19:49:51.597Z,4.70
2023-04-20T19:54:53.615Z,4.90
2023-04-20T19:59:55.721Z,3.72
2023-04-20T20:04:59.093Z,9.75
2023-04-20T20:10:01.398Z,6.78
2023-04-20T20:15:04.592Z,5.95
2023-04-20T20:25:11.334Z,6.40
2023-04-20T20:30:14.537Z,8.82
2023-04-20T20:35:18.015Z,5.85
2023-04-20T20:40:20.164Z,10.95
2023-04-20T20:45:22.345Z,6.05
2023-04-20T20:50:27.714Z,5.32
2023-04-20T20:55:29.774Z,4.20
2023-04-20T21:00:33.374Z,6.57
2023-04-20T21:05:36.774Z,12.25
2023-04-20T21:15:40.917Z,5.50
2023-04-20T21:20:44.223Z,7.22
2023-04-20T21:25:46.260Z,9.70
2023-04-20T21:30:48.268Z,6.97
2023-04-20T21:35:51.622Z,5.75
2023-04-20T21:45:55.585Z,4.88
2023-04-20T21:50:58.953Z,7.70
2023-04-20T21:56:00.926Z,7.85
2023-04-20T22:01:03.418Z,4.40
2023-04-20T22:06:07.135Z,6.13
2023-04-20T22:11:09.341Z,4.20
2023-04-20T22:16:11.378Z,5.68
2023-04-20T22:21:14.764Z,8.13
2023-04-20T22:26:16.807Z,4.82
2023-04-20T22:31:18.841Z,4.05
2023-04-20T22:36:22.188Z,5.65
2023-04-20T22:41:24.170Z,4.25
2023-04-20T22:46:26.127Z,5.05
2023-04-20T22:51:29.509Z,4.88
2023-04-20T22:56:31.977Z,3.40
2023-04-20T23:01:33.921Z,6.90
2023-04-20T23:06:37.812Z,3.53
2023-04-20T23:11:39.803Z,7.18
2023-04-20T23:16:42.020Z,5.18
2023-04-20T23:21:45.524Z,4.25
2023-04-20T23:26:47.506Z,4.43
2023-04-20T23:31:49.529Z,5.22
2023-04-20T23:36:53.899Z,6.22
2023-04-20T23:41:56.355Z,5.00
2023-04-20T23:46:58.304Z,4.20
2023-04-20T23:52:01.587Z,7.78
2023-04-20T23:57:03.583Z,4.82
